Time;durP1;ratioP1;P1;durP2;ratioP2;P2;SDS_P1;SDS_P2;PMS_P1;PMS_P2;Temp;Humidity;BMP_temperature;BMP_pressure;BME280_temperature;BME280_humidity;BME280_pressure;Samples;Min_cycle;Max_cycle;Signal;HPM_P1;HPM_P2
2022/03/14 00:00:24;;;;;;;18.27;12.48;;;;;;;8.45;33.89;95405.44;4992740;28;20610;-63
2022/03/14 00:02:50;;;;;;;19.98;13.85;;;;;;;8.40;34.05;95403.66;4993048;28;20061;-63
2022/03/14 00:05:17;;;;;;;15.82;12.85;;;;;;;8.33;33.87;95400.50;4992328;28;20360;-62
2022/03/14 00:07:44;;;;;;;17.73;12.52;;;;;;;7.62;35.27;95338.47;5002427;23;20042;-65
2022/03/14 00:10:10;;;;;;;21.05;12.15;;;;;;;7.40;35.24;95309.03;4992710;28;20077;-65
2022/03/14 00:12:36;;;;;;;16.52;12.27;;;;;;;8.08;35.14;95401.56;4992555;28;20027;-65
2022/03/14 00:15:07;;;;;;;14.70;12.85;;;;;;;7.42;34.97;95312.19;4975118;28;20030;-65
2022/03/14 00:17:32;;;;;;;15.95;12.43;;;;;;;7.78;35.67;95400.81;4980994;28;20119;-66
2022/03/14 00:19:59;;;;;;;16.70;12.30;;;;;;;7.34;36.01;95363.88;4973234;28;20039;-66
2022/03/14 00:22:26;;;;;;;15.35;11.93;;;;;;;7.46;36.39;95434.97;4973111;28;20117;-66
2022/03/14 00:24:51;;;;;;;16.65;12.13;;;;;;;5.57;39.60;95385.53;4973649;28;20484;-66
2022/03/14 00:27:16;;;;;;;15.27;11.90;;;;;;;6.45;39.11;95463.56;4973204;28;20116;-67
2022/03/14 00:29:42;;;;;;;17.17;12.00;;;;;;;6.62;38.61;95453.44;4973130;28;20111;-66
2022/03/14 00:32:08;;;;;;;15.55;12.13;;;;;;;5.79;39.06;95368.63;4973226;28;20037;-67
2022/03/14 00:34:33;;;;;;;16.15;11.50;;;;;;;6.52;38.22;95458.78;4955880;28;20410;-66
2022/03/14 00:36:59;;;;;;;15.07;11.45;;;;;;;5.93;38.41;95361.75;4972610;28;20027;-65
2022/03/14 00:39:24;;;;;;;15.95;10.98;;;;;;;6.46;37.73;95389.28;4972703;28;20053;-66
2022/03/14 00:41:50;;;;;;;14.55;11.65;;;;;;;6.92;37.56;95428.72;4972958;28;20035;-65
2022/03/14 00:44:17;;;;;;;16.50;11.85;;;;;;;7.14;37.45;95478.56;4973160;28;20476;-66
2022/03/14 00:46:43;;;;;;;15.93;11.73;;;;;;;7.00;36.43;95432.63;4973074;28;20033;-66
2022/03/14 00:49:09;;;;;;;13.23;11.57;;;;;;;7.40;36.31;95495.09;4972550;28;20035;-66
2022/03/14 00:51:35;;;;;;;13.93;12.13;;;;;;;7.13;36.79;95429.38;4970292;28;20045;-66
2022/03/14 00:54:04;;;;;;;15.68;11.30;;;;;;;6.91;36.55;95398.06;4953737;28;20438;-65
2022/03/14 00:56:31;;;;;;;16.25;11.35;;;;;;;6.92;36.00;95393.56;4953397;28;20106;-65
2022/03/14 00:58:59;;;;;;;14.93;11.85;;;;;;;7.19;36.59;95435.44;4953522;28;20031;-65
2022/03/14 01:01:26;;;;;;;15.82;12.45;;;;;;;7.02;36.35;95383.69;4953445;29;20070;-66
2022/03/14 01:03:52;;;;;;;13.50;11.57;;;;;;;7.07;36.24;95400.59;4953603;29;20027;-65
2022/03/14 01:06:17;;;;;;;17.33;12.68;;;;;;;6.89;36.25;95383.50;4961014;28;20515;-66
2022/03/14 01:08:43;;;;;;;14.40;12.10;;;;;;;6.93;35.98;95381.91;4972127;28;20364;-66
2022/03/14 01:11:08;;;;;;;18.38;12.45;;;;;;;7.62;36.61;95478.78;4972729;28;20038;-66
2022/03/14 01:13:34;;;;;;;14.48;11.77;;;;;;;6.91;36.33;95376.91;4972824;28;20026;-65
2022/03/14 01:15:59;;;;;;;15.15;11.57;;;;;;;7.70;36.39;95502.03;4972813;28;20055;-66
2022/03/14 01:18:25;;;;;;;17.05;11.65;;;;;;;7.68;36.06;95496.22;4972539;28;20015;-66
2022/03/14 01:20:51;;;;;;;14.75;11.63;;;;;;;7.27;36.27;95434.84;4972309;28;20077;-66
2022/03/14 01:23:17;;;;;;;14.90;10.23;;;;;;;7.71;36.54;95503.59;4972521;28;20027;-65
2022/03/14 01:25:45;;;;;;;13.50;11.00;;;;;;;7.29;36.41;95445.94;4975544;28;20027;-66
2022/03/14 01:28:11;;;;;;;12.07;9.55;;;;;;;7.77;36.56;95522.88;4976601;28;20117;-67
2022/03/14 01:30:37;;;;;;;13.35;10.40;;;;;;;7.13;36.08;95420.66;4975905;28;20177;-65
2022/03/14 01:33:03;;;;;;;11.13;9.85;;;;;;;7.67;36.20;95499.13;4976540;28;20041;-65
2022/03/14 01:35:29;;;;;;;10.73;9.60;;;;;;;7.33;36.18;95452.28;4976020;28;20019;-66
2022/03/14 01:37:56;;;;;;;10.63;9.52;;;;;;;7.87;35.81;95514.06;4975869;28;20086;-66
2022/03/14 01:40:22;;;;;;;13.02;9.60;;;;;;;7.44;35.97;95437.09;4975794;28;20031;-65
2022/03/14 01:42:47;;;;;;;11.57;9.32;;;;;;;7.30;35.77;95424.50;4976308;28;20543;-66
2022/03/14 01:45:16;;;;;;;12.20;9.70;;;;;;;7.48;35.96;95433.63;4976314;28;20027;-66
2022/03/14 01:47:43;;;;;;;11.13;8.40;;;;;;;7.97;35.94;95503.41;4976095;28;20034;-66
2022/03/14 01:50:09;;;;;;;10.38;9.32;;;;;;;7.85;35.63;95442.84;4976022;28;20492;-65
2022/03/14 01:52:35;;;;;;;14.80;9.57;;;;;;;8.28;35.46;95495.97;4975507;28;20487;-66
2022/03/14 01:55:02;;;;;;;9.80;8.32;;;;;;;7.35;36.77;95518.94;4975955;28;20066;-65
2022/03/14 01:57:29;;;;;;;9.55;8.38;;;;;;;7.87;35.93;95536.06;4975977;28;20046;-66
2022/03/14 01:59:55;;;;;;;10.20;8.93;;;;;;;8.61;35.23;95546.59;4975648;28;20035;-66
2022/03/14 02:02:21;;;;;;;10.85;8.70;;;;;;;8.92;34.71;95531.13;4975955;28;20023;-66
2022/03/14 02:04:47;;;;;;;10.20;8.13;;;;;;;9.14;34.07;95531.38;4975819;28;20029;-65
2022/03/14 02:07:13;;;;;;;10.10;7.95;;;;;;;8.29;34.15;95448.00;4975316;28;20106;-65
2022/03/14 02:09:38;;;;;;;11.05;8.00;;;;;;;8.60;34.15;95516.63;4975394;28;20118;-65
2022/03/14 02:12:07;;;;;;;9.88;8.68;;;;;;;8.45;34.40;95504.31;4975646;28;20041;-65
2022/03/14 02:14:35;;;;;;;10.85;8.88;;;;;;;8.49;34.64;95547.72;4975825;28;20023;-65
2022/03/14 02:17:00;;;;;;;12.90;8.63;;;;;;;8.57;34.72;95512.66;4975661;28;20073;-65
2022/03/14 02:19:26;;;;;;;15.30;9.00;;;;;;;8.42;34.47;95517.34;4975425;28;20031;-65
2022/03/14 02:21:51;;;;;;;13.32;8.73;;;;;;;8.65;34.29;95526.38;4974958;28;20105;-66
2022/03/14 02:24:17;;;;;;;13.15;8.63;;;;;;;9.56;33.98;95607.56;4975355;28;20027;-66
2022/03/14 02:26:44;;;;;;;11.07;8.38;;;;;;;9.97;33.25;95644.19;4975456;28;20376;-66
2022/03/14 02:29:10;;;;;;;9.43;7.90;;;;;;;9.53;33.67;95570.97;4975330;28;20476;-67
2022/03/14 02:31:36;;;;;;;10.52;8.45;;;;;;;9.25;33.31;95521.41;4975437;28;20027;-66
2022/03/14 02:34:07;;;;;;;13.18;8.82;;;;;;;9.41;33.71;95512.16;4975220;28;20066;-66
2022/03/14 02:36:34;;;;;;;10.38;7.68;;;;;;;9.86;33.08;95558.53;4973890;28;20035;-67
2022/03/14 02:38:59;;;;;;;13.95;8.43;;;;;;;10.54;32.87;95647.63;4974834;28;20019;-67
2022/03/14 02:41:25;;;;;;;11.40;8.18;;;;;;;10.02;32.51;95550.31;4975219;28;20082;-64
2022/03/14 02:43:51;;;;;;;13.77;8.93;;;;;;;10.06;32.41;95562.75;4974044;28;20042;-67
2022/03/14 02:46:17;;;;;;;10.63;8.50;;;;;;;10.30;32.48;95594.59;4974892;28;20028;-67
2022/03/14 02:48:43;;;;;;;10.02;7.65;;;;;;;10.30;32.45;95599.91;4974949;28;20027;-65
2022/03/14 02:51:08;;;;;;;8.98;7.55;;;;;;;9.02;33.90;95558.31;4974653;28;20061;-65
2022/03/14 02:53:34;;;;;;;9.60;7.60;;;;;;;9.98;33.10;95578.56;4974867;28;20154;-67
2022/03/14 02:55:59;;;;;;;8.48;7.57;;;;;;;10.79;32.86;95682.88;4974770;28;20073;-67
2022/03/14 02:58:29;;;;;;;10.95;7.82;;;;;;;10.30;32.64;95560.00;4974713;28;20031;-66
2022/03/14 03:00:55;;;;;;;8.50;7.13;;;;;;;10.84;32.40;95643.69;4974791;28;20058;-67
2022/03/14 03:03:21;;;;;;;8.63;7.68;;;;;;;10.52;32.65;95606.47;4974963;28;20091;-67
2022/03/14 03:05:46;;;;;;;9.15;7.68;;;;;;;11.07;32.44;95622.53;4974791;28;20026;-67
2022/03/14 03:08:12;;;;;;;12.10;7.25;;;;;;;10.35;32.81;95591.06;4974272;28;20166;-66
2022/03/14 03:10:38;;;;;;;9.13;7.80;;;;;;;11.03;32.89;95662.25;4974432;28;20067;-65
2022/03/14 03:13:03;;;;;;;10.90;7.43;;;;;;;10.87;33.51;95634.31;4974766;28;20752;-67
2022/03/14 03:15:29;;;;;;;9.38;7.00;;;;;;;10.63;33.30;95623.81;4974619;28;20074;-67
2022/03/14 03:17:57;;;;;;;9.93;7.78;;;;;;;10.19;34.71;95632.22;4974917;28;20428;-67
2022/03/14 03:20:25;;;;;;;8.88;7.75;;;;;;;10.61;34.46;95642.75;4974003;28;20077;-65
2022/03/14 03:22:50;;;;;;;9.23;7.63;;;;;;;9.97;36.02;95635.44;4973109;28;20042;-65
2022/03/14 03:25:16;;;;;;;8.32;7.43;;;;;;;10.61;36.40;95743.84;4974333;28;20394;-67
2022/03/14 03:27:41;;;;;;;9.20;7.88;;;;;;;10.64;36.17;95666.09;4974341;28;20031;-64
2022/03/14 03:30:08;;;;;;;10.57;8.57;;;;;;;11.05;36.67;95715.97;4974175;28;20035;-64
2022/03/14 03:32:34;;;;;;;13.68;8.10;;;;;;;10.61;36.80;95676.53;4974173;28;20029;-65
2022/03/14 03:35:00;;;;;;;12.63;8.98;;;;;;;10.57;37.90;95670.22;4956403;28;20417;-65
2022/03/14 03:37:25;;;;;;;14.43;9.98;;;;;;;10.57;37.75;95668.34;4972613;28;20037;-65
2022/03/14 03:39:51;;;;;;;13.20;9.93;;;;;;;10.67;38.01;95678.81;4973412;28;20030;-65
2022/03/14 03:42:16;;;;;;;13.05;10.43;;;;;;;11.15;39.30;95810.88;4974056;28;20631;-65
2022/03/14 03:44:41;;;;;;;10.48;8.80;;;;;;;10.24;40.02;95704.75;4974115;28;20472;-65
2022/03/14 03:47:07;;;;;;;14.52;10.63;;;;;;;10.71;39.65;95734.13;4973909;28;20391;-65
2022/03/14 03:49:33;;;;;;;14.52;9.40;;;;;;;10.83;40.71;95812.41;4973778;28;20049;-65
2022/03/14 03:51:58;;;;;;;15.85;10.55;;;;;;;10.65;41.08;95774.09;4973479;28;20027;-65
2022/03/14 03:54:24;;;;;;;12.57;10.65;;;;;;;10.08;42.54;95767.13;4973901;28;20662;-66
2022/03/14 03:56:49;;;;;;;15.15;10.82;;;;;;;10.00;42.31;95735.88;4973677;28;20098;-66
2022/03/14 03:59:16;;;;;;;15.48;11.38;;;;;;;9.99;43.03;95760.88;4973545;28;20475;-65
2022/03/14 04:01:43;;;;;;;22.45;11.77;;;;;;;10.26;43.56;95805.50;4973648;28;20475;-65
2022/03/14 04:04:09;;;;;;;16.83;12.35;;;;;;;9.88;43.81;95736.28;4973763;28;20027;-65
2022/03/14 04:06:35;;;;;;;15.15;12.30;;;;;;;10.42;44.22;95830.81;4971983;28;20027;-65
2022/03/14 04:09:04;;;;;;;15.65;12.35;;;;;;;9.76;45.55;95787.16;4973168;28;20163;-65
2022/03/14 04:11:29;;;;;;;22.67;14.15;;;;;;;10.58;44.82;95860.66;4973507;28;20037;-65
2022/03/14 04:13:58;;;;;;;19.48;14.60;;;;;;;10.71;44.62;95801.44;4973405;28;20027;-67
2022/03/14 04:16:24;;;;;;;26.08;13.93;;;;;;;9.82;45.98;95777.25;4973348;28;20027;-65
2022/03/14 04:18:50;;;;;;;20.15;15.38;;;;;;;10.52;45.32;95813.94;4973127;28;20046;-65
2022/03/14 04:21:16;;;;;;;22.00;14.65;;;;;;;10.52;46.13;95883.09;4972930;28;20081;-65
2022/03/14 04:23:42;;;;;;;21.85;15.95;;;;;;;9.78;48.14;95806.28;4973235;28;20018;-65
2022/03/14 04:26:08;;;;;;;21.65;16.70;;;;;;;9.96;47.77;95838.50;4955842;28;20125;-66
2022/03/14 04:28:36;;;;;;;23.42;14.40;;;;;;;9.56;48.25;95813.91;4973253;28;20027;-65
2022/03/14 04:31:03;;;;;;;21.80;16.80;;;;;;;10.22;47.30;95821.19;4973071;28;20034;-65
2022/03/14 04:33:29;;;;;;;20.70;15.75;;;;;;;10.07;46.78;95814.19;4973319;28;20023;-67
2022/03/14 04:35:55;;;;;;;23.50;16.25;;;;;;;9.83;47.84;95853.25;4973178;28;20105;-65
2022/03/14 04:38:20;;;;;;;26.52;16.20;;;;;;;9.43;48.33;95772.09;4954981;28;20693;-65
2022/03/14 04:40:46;;;;;;;22.45;16.20;;;;;;;10.76;47.37;95957.56;4953396;28;20034;-65
2022/03/14 04:43:11;;;;;;;20.45;14.15;;;;;;;10.04;49.73;95929.06;4953815;28;20034;-65
2022/03/14 04:45:38;;;;;;;19.73;16.05;;;;;;;10.06;49.18;95915.47;4953688;28;20063;-65
2022/03/14 04:48:05;;;;;;;22.23;16.27;;;;;;;9.65;49.65;95876.00;4953706;28;20027;-65
2022/03/14 04:50:32;;;;;;;20.45;16.33;;;;;;;10.09;48.72;95896.31;4953473;29;20029;-65
2022/03/14 04:52:57;;;;;;;19.33;14.20;;;;;;;9.72;49.48;95892.38;4965897;28;20472;-65
2022/03/14 04:55:23;;;;;;;21.25;14.88;;;;;;;9.80;50.03;95942.28;4972692;28;20031;-65
2022/03/14 04:57:48;;;;;;;17.65;13.18;;;;;;;9.73;50.86;95936.50;4973069;28;20078;-65
2022/03/14 05:00:15;;;;;;;17.45;14.63;;;;;;;9.72;50.09;95876.44;4972083;28;20031;-65
2022/03/14 05:02:40;;;;;;;19.42;14.23;;;;;;;9.96;49.59;95915.56;4972952;28;20054;-68
2022/03/14 05:05:11;;;;;;;16.25;10.93;;;;;;;10.04;51.86;95997.38;4972801;28;20085;-66
2022/03/14 05:07:37;;;;;;;19.70;14.05;;;;;;;10.31;50.27;95972.94;4972417;28;20384;-63
2022/03/14 05:10:03;;;;;;;19.40;14.40;;;;;;;9.88;50.54;95891.19;4972468;28;20019;-63
2022/03/14 05:12:32;;;;;;;17.55;14.25;;;;;;;10.72;49.96;95983.94;4972657;28;20041;-65
2022/03/14 05:14:57;;;;;;;16.60;13.95;;;;;;;9.85;50.96;95890.97;4972744;28;20023;-66
2022/03/14 05:17:22;;;;;;;17.35;12.80;;;;;;;10.24;51.07;95964.53;4972625;28;20114;-64
2022/03/14 05:19:48;;;;;;;12.18;10.88;;;;;;;10.43;52.38;96017.78;4972390;28;20027;-64
2022/03/14 05:22:13;;;;;;;11.65;10.25;;;;;;;10.48;51.69;96015.06;4972195;28;20102;-65
2022/03/14 05:24:39;;;;;;;10.98;9.05;;;;;;;10.24;52.52;96013.16;4973214;28;20042;-65
2022/03/14 05:27:06;;;;;;;11.73;9.27;;;;;;;10.44;52.40;96022.81;4972691;28;20030;-67
2022/03/14 05:29:32;;;;;;;13.32;8.73;;;;;;;10.78;52.12;96046.66;4972281;28;20058;-66
2022/03/14 05:31:58;;;;;;;9.80;8.80;;;;;;;10.76;51.85;96019.56;4972587;28;20062;-65
2022/03/14 05:34:23;;;;;;;10.35;8.52;;;;;;;10.93;51.20;96027.88;4972664;28;20046;-64
2022/03/14 05:36:48;;;;;;;9.60;8.20;;;;;;;10.72;51.51;96042.47;4972253;28;20031;-65
2022/03/14 05:39:14;;;;;;;9.20;7.90;;;;;;;11.09;51.12;96051.66;4971874;28;20428;-66
2022/03/14 05:41:39;;;;;;;8.75;7.82;;;;;;;10.86;52.13;96054.06;4972099;28;20031;-65
2022/03/14 05:44:05;;;;;;;8.48;7.57;;;;;;;10.86;52.15;96077.22;4972599;28;20030;-65
2022/03/14 05:46:30;;;;;;;7.10;6.40;;;;;;;11.04;51.90;96075.69;4972807;28;20515;-65
2022/03/14 05:48:56;;;;;;;7.80;7.00;;;;;;;11.44;50.98;96090.38;4972268;28;20023;-65
2022/03/14 05:51:21;;;;;;;8.15;7.35;;;;;;;11.43;50.95;96092.25;4972527;28;20407;-65
2022/03/14 05:53:46;;;;;;;8.70;7.22;;;;;;;11.35;50.99;96066.25;4971685;28;20031;-65
2022/03/14 05:56:12;;;;;;;8.10;7.28;;;;;;;11.40;51.60;96094.69;4972201;28;20472;-65
2022/03/14 05:58:37;;;;;;;8.30;7.47;;;;;;;11.27;52.03;96087.41;4972509;28;20102;-65
2022/03/14 06:01:03;;;;;;;7.90;7.05;;;;;;;11.82;50.42;96091.22;4972204;28;20058;-65
2022/03/14 06:03:28;;;;;;;7.70;6.90;;;;;;;11.05;52.64;96104.66;4972264;28;20031;-65
2022/03/14 06:05:54;;;;;;;14.70;6.93;;;;;;;10.98;53.04;96108.75;4970939;28;20031;-65
2022/03/14 06:08:19;;;;;;;9.48;7.07;;;;;;;11.50;52.07;96115.88;4971546;28;20034;-65
2022/03/14 06:10:46;;;;;;;10.00;6.78;;;;;;;11.10;52.51;96067.34;4984380;23;20051;-65
2022/03/14 06:13:15;;;;;;;7.78;5.95;;;;;;;11.22;52.63;96112.22;4975863;28;20023;-67
2022/03/14 06:15:41;;;;;;;6.53;5.60;;;;;;;11.63;51.94;96138.38;4968116;28;20030;-67
2022/03/14 06:18:08;;;;;;;5.47;4.97;;;;;;;9.77;53.47;95950.78;4956152;29;20098;-66
2022/03/14 06:20:34;;;;;;;5.95;4.90;;;;;;;10.36;53.08;96002.16;4954863;28;20145;-66
2022/03/14 06:23:00;;;;;;;5.88;5.25;;;;;;;11.24;53.24;96134.03;4955818;29;20027;-66
2022/03/14 06:25:25;;;;;;;6.35;5.75;;;;;;;11.10;52.02;96062.00;4955801;28;20027;-67
2022/03/14 06:27:51;;;;;;;5.80;4.97;;;;;;;11.47;51.26;96137.00;4956085;28;20027;-66
2022/03/14 06:30:16;;;;;;;4.95;4.55;;;;;;;12.33;50.04;96175.84;4955449;29;20034;-67
2022/03/14 06:32:42;;;;;;;5.35;4.85;;;;;;;11.88;51.14;96161.28;4955947;28;20098;-66
2022/03/14 06:35:12;;;;;;;6.40;4.85;;;;;;;12.72;48.22;96114.13;4938577;29;20555;-65
2022/03/14 06:37:38;;;;;;;6.03;5.50;;;;;;;13.14;46.88;96155.03;4955968;28;20071;-66
2022/03/14 06:40:04;;;;;;;5.60;4.30;;;;;;;12.68;48.80;96190.53;4955414;29;20054;-66
2022/03/14 06:42:30;;;;;;;6.63;4.80;;;;;;;12.62;48.11;96159.66;4955672;28;20023;-67
2022/03/14 06:44:58;;;;;;;5.53;5.03;;;;;;;12.28;49.03;96178.59;4955482;28;20038;-66
2022/03/14 06:47:24;;;;;;;5.30;4.53;;;;;;;11.44;51.28;96179.09;4955585;29;20023;-67
2022/03/14 06:49:49;;;;;;;5.32;3.50;;;;;;;11.28;51.54;96180.34;4955409;29;20551;-66
2022/03/14 06:52:16;;;;;;;4.10;3.80;;;;;;;11.83;51.17;96185.34;4955091;29;20039;-66
2022/03/14 06:54:42;;;;;;;4.18;3.42;;;;;;;11.39;51.92;96173.03;4955184;28;20070;-66
2022/03/14 06:57:08;;;;;;;4.22;3.80;;;;;;;11.69;51.41;96209.19;4955644;28;20388;-66
2022/03/14 06:59:34;;;;;;;5.18;3.13;;;;;;;11.32;52.21;96210.66;4951391;29;20034;-66
2022/03/14 07:02:00;;;;;;;5.93;3.17;;;;;;;11.48;51.35;96165.22;4954929;28;20690;-66
2022/03/14 07:04:27;;;;;;;4.88;3.22;;;;;;;11.61;51.42;96204.47;4955583;29;20032;-66
2022/03/14 07:06:52;;;;;;;3.47;3.17;;;;;;;12.59;49.50;96202.16;4955590;28;20070;-67
2022/03/14 07:09:18;;;;;;;3.50;3.20;;;;;;;12.63;48.29;96171.13;4955631;29;20027;-67
2022/03/14 07:11:43;;;;;;;5.60;3.45;;;;;;;13.07;47.43;96196.59;4954636;29;20031;-68
2022/03/14 07:14:09;;;;;;;4.07;3.60;;;;;;;13.37;46.68;96204.09;4955173;29;20436;-68
2022/03/14 07:16:34;;;;;;;2.90;2.70;;;;;;;13.47;46.00;96203.13;4955129;28;20204;-67
2022/03/14 07:18:59;;;;;;;2.83;2.50;;;;;;;12.43;47.56;96213.03;4955064;28;20031;-67
2022/03/14 07:21:28;;;;;;;5.43;2.85;;;;;;;12.19;48.23;96191.00;4954927;28;20472;-67
2022/03/14 07:23:57;;;;;;;3.28;2.97;;;;;;;12.03;48.17;96163.75;4954353;28;20424;-66
2022/03/14 07:26:23;;;;;;;4.38;3.03;;;;;;;11.94;47.73;96144.94;4954709;28;20110;-66
2022/03/14 07:28:49;;;;;;;5.30;3.10;;;;;;;12.28;48.84;96239.94;4954700;29;20106;-68
2022/03/14 07:31:18;;;;;;;9.32;3.28;;;;;;;11.97;49.97;96229.66;4954840;28;20027;-71
2022/03/14 07:33:43;;;;;;;2.38;1.83;;;;;;;10.78;51.36;96197.56;4954907;29;20540;-65
2022/03/14 07:36:11;;;;;;;3.75;3.22;;;;;;;11.83;49.71;96236.00;4954829;28;20031;-69
2022/03/14 07:38:36;;;;;;;2.95;2.65;;;;;;;11.67;50.61;96262.00;4953692;28;20042;-69
2022/03/14 07:41:02;;;;;;;3.40;2.50;;;;;;;11.16;51.48;96254.50;4958933;28;20027;-67
2022/03/14 07:43:27;;;;;;;7.93;3.00;;;;;;;11.26;51.02;96241.09;4955167;29;20023;-66
2022/03/14 07:45:52;;;;;;;7.25;2.53;;;;;;;12.39;47.76;96227.28;4954663;28;20023;-68
2022/03/14 07:48:18;;;;;;;12.15;3.63;;;;;;;11.76;48.07;96198.97;4954674;29;20027;-66
2022/03/14 07:50:43;;;;;;;3.15;2.15;;;;;;;12.17;46.90;96219.81;4954308;29;20086;-66
2022/03/14 07:53:09;;;;;;;3.03;2.00;;;;;;;12.16;47.09;96227.03;4954091;29;20027;-66
2022/03/14 07:55:34;;;;;;;1.33;1.23;;;;;;;10.71;49.39;96203.22;4964132;28;20054;-67
2022/03/14 07:58:00;;;;;;;2.58;1.95;;;;;;;11.13;48.93;96213.25;4973828;28;20062;-67
2022/03/14 08:00:25;;;;;;;1.42;1.33;;;;;;;11.39;48.91;96280.38;4973097;28;20030;-67
2022/03/14 08:02:51;;;;;;;3.38;1.80;;;;;;;12.37;47.46;96262.22;4973636;28;20054;-66
2022/03/14 08:05:18;;;;;;;3.15;1.60;;;;;;;12.11;47.11;96242.31;4973503;28;20391;-66
2022/03/14 08:07:46;;;;;;;1.80;1.70;;;;;;;13.21;44.51;96258.88;4969467;28;20090;-66
2022/03/14 08:10:13;;;;;;;1.48;1.08;;;;;;;12.21;46.10;96274.19;4953762;28;20039;-64
2022/03/14 08:12:43;;;;;;;4.15;1.20;;;;;;;12.68;45.20;96286.63;4954241;29;20027;-68
2022/03/14 08:15:09;;;;;;;1.85;1.00;;;;;;;12.88;44.42;96272.19;4954215;28;20031;-68
2022/03/14 08:17:34;;;;;;;2.58;0.93;;;;;;;11.07;46.62;96197.59;4954243;29;20082;-70
2022/03/14 08:20:00;;;;;;;0.98;0.88;;;;;;;12.57;44.50;96247.03;4954196;28;20030;-69
2022/03/14 08:22:25;;;;;;;2.47;1.08;;;;;;;13.11;44.16;96283.06;4955407;29;20030;-67
2022/03/14 08:24:51;;;;;;;9.40;2.30;;;;;;;13.60;42.12;96268.34;4954079;28;20485;-67
2022/03/14 08:27:16;;;;;;;5.88;1.55;;;;;;;12.65;45.06;96297.09;4955287;28;20031;-67
2022/03/14 08:29:42;;;;;;;2.45;1.30;;;;;;;13.06;44.30;96320.53;4954099;28;20042;-69
2022/03/14 08:32:08;;;;;;;2.88;1.17;;;;;;;13.22;43.88;96289.88;4954303;28;20055;-68
2022/03/14 08:34:34;;;;;;;1.77;1.00;;;;;;;12.53;44.01;96262.81;4953317;28;20122;-67
2022/03/14 08:36:59;;;;;;;7.22;1.27;;;;;;;13.45;43.04;96294.25;4953902;29;20453;-68
2022/03/14 08:39:26;;;;;;;3.25;0.93;;;;;;;13.17;43.42;96330.00;4953042;28;20544;-69
2022/03/14 08:41:51;;;;;;;1.38;0.82;;;;;;;12.22;45.95;96337.91;4936143;29;20440;-69
2022/03/14 08:44:18;;;;;;;1.48;0.95;;;;;;;12.05;44.78;96204.25;4953602;28;20023;-66
2022/03/14 08:46:43;;;;;;;0.80;0.80;;;;;;;13.04;42.84;96279.97;4953719;29;20031;-65
2022/03/14 08:49:09;;;;;;;1.70;0.75;;;;;;;13.08;43.64;96340.53;4953497;28;20035;-66
2022/03/14 08:51:34;;;;;;;5.68;0.80;;;;;;;13.07;43.38;96341.63;4953475;29;20115;-66
2022/03/14 08:54:00;;;;;;;1.15;0.70;;;;;;;13.55;42.83;96337.94;4953222;29;20027;-67
2022/03/14 08:56:25;;;;;;;1.73;0.70;;;;;;;12.73;43.28;96289.22;4953333;28;20035;-68
2022/03/14 08:58:50;;;;;;;1.48;0.45;;;;;;;12.60;43.79;96273.94;4953293;29;20030;-68
2022/03/14 09:01:16;;;;;;;1.27;0.80;;;;;;;13.52;42.34;96344.69;4953281;28;20098;-68
2022/03/14 09:03:42;;;;;;;4.25;0.90;;;;;;;13.33;42.64;96358.09;4953554;28;20115;-68
2022/03/14 09:06:07;;;;;;;0.95;0.70;;;;;;;13.41;42.71;96353.94;4936183;28;20023;-69
2022/03/14 09:08:34;;;;;;;0.75;0.50;;;;;;;13.44;41.75;96342.69;4952714;29;20028;-68
2022/03/14 09:11:01;;;;;;;2.80;0.98;;;;;;;12.90;43.14;96339.47;4952954;28;20032;-69
2022/03/14 09:13:28;;;;;;;1.13;0.50;;;;;;;12.13;44.47;96333.50;4953436;29;20023;-69
2022/03/14 09:15:53;;;;;;;2.38;0.68;;;;;;;13.16;42.22;96336.41;4953192;28;20492;-69
2022/03/14 09:18:20;;;;;;;3.13;1.00;;;;;;;13.84;41.03;96330.50;4953380;28;20047;-67
2022/03/14 09:20:47;;;;;;;1.30;0.65;;;;;;;14.04;40.68;96353.41;4953405;28;20090;-67
2022/03/14 09:23:13;;;;;;;2.60;0.80;;;;;;;13.75;40.57;96266.19;4951990;29;20031;-68
2022/03/14 09:25:39;;;;;;;5.47;1.33;;;;;;;12.98;41.64;96245.31;4955630;28;20023;-68
2022/03/14 09:28:04;;;;;;;2.38;0.95;;;;;;;13.47;42.48;96361.59;4972573;28;20480;-68
2022/03/14 09:30:30;;;;;;;2.15;1.08;;;;;;;13.56;41.50;96336.84;4972280;28;20031;-67
2022/03/14 09:32:55;;;;;;;2.17;0.80;;;;;;;12.61;43.86;96374.28;4972658;28;20023;-67
2022/03/14 09:35:23;;;;;;;1.23;1.00;;;;;;;13.76;41.66;96356.00;4972353;28;20053;-67
2022/03/14 09:37:50;;;;;;;0.80;0.70;;;;;;;12.73;43.07;96307.13;4971284;28;20029;-67
2022/03/14 09:40:21;;;;;;;1.75;0.80;;;;;;;11.26;42.29;96059.16;4951330;28;20046;-68
2022/03/14 09:42:49;;;;;;;1.85;0.70;;;;;;;13.76;41.11;96366.72;4952058;29;20031;-67
2022/03/14 09:45:15;;;;;;;2.30;0.70;;;;;;;15.00;39.56;96365.97;4953912;28;20015;-70
2022/03/14 09:47:43;;;;;;;4.90;0.77;;;;;;;14.27;39.75;96348.94;4956774;29;20090;-68
2022/03/14 09:50:31;;;;;;;4.00;1.02;;;;;;;15.52;37.35;96308.16;4956598;29;20086;-67
2022/03/14 09:52:58;;;;;;;0.65;0.45;;;;;;;15.54;37.49;96367.63;4956378;28;20133;-69
2022/03/14 09:55:24;;;;;;;0.75;0.70;;;;;;;15.47;36.54;96262.69;4938957;29;20058;-68
2022/03/14 09:57:50;;;;;;;2.13;0.82;;;;;;;15.08;38.08;96362.53;4956793;28;20051;-68
2022/03/14 10:00:16;;;;;;;2.70;0.70;;;;;;;14.24;39.32;96366.41;4956085;28;20074;-69
2022/03/14 10:02:43;;;;;;;0.95;0.80;;;;;;;15.31;37.63;96371.41;4939370;29;20034;-67
2022/03/14 10:05:11;;;;;;;0.90;0.70;;;;;;;16.03;36.52;96355.16;4956599;28;20035;-68
2022/03/14 10:07:37;;;;;;;1.30;0.90;;;;;;;15.99;36.42;96375.66;4956502;29;20027;-70
2022/03/14 10:10:04;;;;;;;1.90;0.70;;;;;;;17.46;34.02;96366.41;4961753;28;20034;-67
2022/03/14 10:12:30;;;;;;;0.73;0.50;;;;;;;17.80;33.34;96291.00;4975551;28;20484;-67
2022/03/14 10:14:56;;;;;;;0.85;0.60;;;;;;;18.27;32.41;96366.41;4975607;28;20060;-68
2022/03/14 10:17:21;;;;;;;0.80;0.65;;;;;;;16.49;35.52;96361.19;4975891;28;20061;-66
2022/03/14 10:19:55;;;;;;;0.50;0.50;;;;;;;15.06;37.77;96357.50;4975217;28;20550;-67
2022/03/14 10:22:21;;;;;;;1.58;0.60;;;;;;;14.42;37.33;96337.94;4975475;28;20515;-68
2022/03/14 10:24:48;;;;;;;1.50;0.60;;;;;;;15.04;36.07;96300.72;4960193;28;20150;-69
2022/03/14 10:27:18;;;;;;;1.38;0.40;;;;;;;14.77;37.71;96395.34;4955976;29;20023;-68
2022/03/14 10:29:46;;;;;;;4.75;1.38;;;;;;;15.32;36.55;96389.09;4955962;29;20035;-67
2022/03/14 10:32:37;;;;;;;0.77;0.63;;;;;;;14.79;37.58;96387.81;4954761;28;20034;-68
2022/03/14 10:35:01;;;;;;;0.40;0.40;;;;;;;14.22;38.29;96397.22;4955155;28;20035;-67
2022/03/14 10:37:31;;;;;;;0.57;0.55;;;;;;;14.59;38.18;96393.59;4956098;29;20492;-68
2022/03/14 10:40:14;;;;;;;0.60;0.60;;;;;;;13.47;39.79;96384.88;4954999;28;20078;-69
2022/03/14 10:42:42;;;;;;;1.60;0.70;;;;;;;13.75;39.70;96369.69;4955758;28;20452;-68
2022/03/14 10:45:18;;;;;;;3.38;0.90;;;;;;;14.00;39.01;96374.59;4955623;28;20027;-67
2022/03/14 10:47:51;;;;;;;0.70;0.70;;;;;;;14.05;39.50;96379.06;4955804;29;20102;-67
2022/03/14 10:50:37;;;;;;;2.67;0.70;;;;;;;14.28;39.51;96374.63;4955404;28;20066;-67
2022/03/14 10:53:06;;;;;;;1.05;0.57;;;;;;;14.96;38.30;96389.88;4956112;28;20031;-67
2022/03/14 10:55:40;;;;;;;0.95;0.77;;;;;;;13.48;39.33;96290.22;4955336;28;20066;-67
2022/03/14 10:58:17;;;;;;;0.50;0.50;;;;;;;14.08;39.17;96396.41;4954817;28;20046;-68
2022/03/14 11:00:53;;;;;;;2.28;0.80;;;;;;;14.39;38.57;96377.91;4955054;29;20078;-67
2022/03/14 11:03:24;;;;;;;0.93;0.60;;;;;;;13.90;37.29;96281.16;4955538;28;20078;-68
2022/03/14 11:05:50;;;;;;;0.75;0.60;;;;;;;13.69;39.01;96350.28;4955294;28;20019;-68
2022/03/14 11:08:31;;;;;;;1.48;0.82;;;;;;;15.11;37.00;96406.72;4954826;28;20031;-68
2022/03/14 11:10:58;;;;;;;4.20;1.00;;;;;;;13.15;38.12;96193.22;4954986;29;20087;-68
2022/03/14 11:13:24;;;;;;;2.47;1.08;;;;;;;13.91;36.35;96172.28;4953863;29;20031;-68
2022/03/14 11:15:49;;;;;;;1.58;0.70;;;;;;;14.98;34.94;96189.41;4955157;28;20118;-66
2022/03/14 11:18:18;;;;;;;1.92;0.70;;;;;;;15.74;35.30;96377.09;4954923;28;20150;-67
2022/03/14 11:20:44;;;;;;;2.63;0.70;;;;;;;15.55;34.95;96352.34;4954825;29;20550;-67
2022/03/14 11:23:10;;;;;;;15.02;1.13;;;;;;;16.42;34.34;96407.28;4955156;29;20066;-67
2022/03/14 11:25:38;;;;;;;4.07;0.80;;;;;;;17.70;32.06;96388.19;4954440;28;20492;-67